Monatstabelle

Bitte in den Auwahlmenüs den gewünschte Zeiraum wählen und die Schaltfläche "Anfrage absenden" betätigen. Beginn der Aufzeichnung ist 2007 - Dezember. Vor diesem Zeitraum sind keine Daten verfügbar.

2020 - März

 

Datum Temperatur (°C) Luftdruck (hPa) Luftfeuchte (%) Regen
(l/m²)
Wind (km/h)
avg: min: max: avg: min: max: avg: min: max: avg: max:
01.03.2020 8,7 4,8 10,7 1000,0 995,3 1003,9 68 46 71 0,8 0,8 17,9
02.03.2020 10,9 7,6 15,8 994,0 991,7 998,1 51 35 70 0,3 8,8 17,2
03.03.2020 6,8 4,7 11,1 999,2 991,4 1004,9 69 55 86 1,1 3,3 14,6
04.03.2020 3,4 -1,2 10,3 1008,8 1004,8 1009,9 63 42 77 0,0 3,9 26,6
05.03.2020 5,8 -2,7 11,9 999,9 993,5 1009,1 58 32 84 0,0 0,0 0,0
06.03.2020 5,4 4,1 8,0 997,3 992,6 1001,5 86 53 90 14,1 0,0 0,0
07.03.2020 5,2 2,8 11,1 1012,1 1001,5 1017,1 70 47 88 0,0 0,0 0,0
08.03.2020 5,5 1,5 10,7 1015,8 1012,2 1019,2 59 43 75 0,0 0,0 0,0
09.03.2020 6,6 0,5 10,4 1010,8 1008,8 1013,4 67 53 77 0,0 0,0 0,0
10.03.2020 8,1 2,1 14,4 1011,0 1009,4 1014,1 63 38 83 0,0 0,0 0,0
11.03.2020 15,5 8,1 20,3 1012,8 1007,9 1015,1 58 45 75 0,0 0,0 0,0
12.03.2020 14,7 5,5 24,0 1010,8 1009,0 1014,9 58 34 85 0,0 0,0 0,0
13.03.2020 8,7 3,1 11,5 1014,5 1009,2 1017,2 51 32 80 1,0 0,0 0,0
14.03.2020 5,7 -0,4 11,1 1019,1 1016,4 1021,9 57 47 80 0,0 0,0 0,0
15.03.2020 4,4 -4,7 10,6 1022,3 1019,8 1024,6 46 30 80 0,0 0,0 0,0
16.03.2020 9,9 1,9 14,3 1020,3 1017,6 1021,8 37 30 66 0,8 0,0 0,0
17.03.2020 9,6 -0,6 16,4 1025,5 1021,0 1026,6 61 41 78 0,0 0,0 0,0
18.03.2020 11,7 4,1 19,1 1024,8 1022,4 1027,2 63 43 90 0,0 0,0 0,0
19.03.2020 15,1 4,1 21,1 1020,4 1018,2 1022,9 56 43 88 0,0 0,0 0,0
20.03.2020 14,1 3,8 22,1 1015,6 1013,4 1019,3 56 36 88 0,0 0,0 0,0
21.03.2020 4,3 0,7 10,7 1018,3 1012,5 1022,1 87 68 89 0,0 0,0 0,0
22.03.2020 -0,3 -3,1 4,0 1025,8 1021,3 1028,4 68 42 77 0,0 0,0 0,0
23.03.2020 0,3 -4,8 2,7 1026,7 1025,4 1028,2 51 44 70 0,0 0,0 0,0
24.03.2020 1,9 -2,0 5,0 1025,1 1023,1 1027,1 48 38 61 0,0 0,0 0,0
25.03.2020 -0,5 -1,9 0,5 1023,5 1021,8 1024,8 78 59 85 0,0 0,0 0,0
26.03.2020 3,4 -1,1 5,7 1019,6 1017,7 1021,8 76 65 89 0,0 0,0 0,0
27.03.2020 9,2 0,0 16,5 1016,2 1014,7 1018,2 56 33 88 0,0 2,0 10,3
28.03.2020 9,4 1,9 19,1 1011,1 1008,4 1014,7 58 33 82 0,0 1,4 5,1
29.03.2020 7,5 2,8 14,2 1012,1 1009,5 1014,9 56 40 81 0,0 10,1 22,0
30.03.2020 1,3 -3,7 6,2 1018,6 1014,8 1020,9 51 34 74 0,3 11,0 24,9
31.03.2020 0,1 -6,4 8,3 1020,9 1019,7 1022,1 66 34 86 0,0 2,6 18,3
avg. 6,9 1014,6 61   ---
  Summe Regen: 18,4  
 
Min-Datum 31.03.2020 03.03.2020 15.03.2020 --- ---
Min-Zeit 06:44 02:58 13:56 --- ---
Minimum -6,4 991,4 30 --- ---
 

Max-Datum

12.03.2020 22.03.2020 06.03.2020 06.03.2020 04.03.2020
Max-Zeit 13:12 22:36 11:38 03:16 11:50
Maximum 24,0 1028,4 90 14,1 26,6
 

 

  Letztes Jahr
gleiches Monat
Eistage max < 0°C 0 0
Frosttage min < 0°C 12 3
Sommertage max >=25°C 0 0
Heiße Tage max >=30°C 0 0

 

<<< nach oben >>>